createdAt,value
2018-02-10T00:00:18.053Z,34.5
2018-02-10T00:01:23.236Z,33.6
2018-02-10T00:02:28.221Z,33.4
2018-02-10T00:03:30.613Z,35.9
2018-02-10T00:04:32.898Z,35.6
2018-02-10T00:05:35.194Z,34.7
2018-02-10T00:06:38.130Z,38.4
2018-02-10T00:07:40.243Z,36.2
2018-02-10T00:08:42.689Z,36.0
2018-02-10T00:09:45.474Z,36.4
2018-02-10T00:10:48.536Z,35.5
2018-02-10T00:11:50.797Z,37.0
2018-02-10T00:12:54.079Z,36.0
2018-02-10T00:13:57.540Z,35.7
2018-02-10T00:14:59.740Z,34.2
2018-02-10T00:16:02.072Z,36.5
2018-02-10T00:17:09.755Z,36.2
2018-02-10T00:18:16.083Z,36.2
2018-02-10T00:19:18.279Z,34.5
2018-02-10T00:20:20.502Z,36.6
2018-02-10T00:21:27.822Z,35.6
2018-02-10T00:22:29.999Z,34.2
2018-02-10T00:23:32.870Z,39.0
2018-02-10T00:24:35.671Z,36.6
2018-02-10T00:25:38.752Z,39.5
2018-02-10T00:26:55.819Z,37.5
2018-02-10T00:27:58.045Z,35.2
2018-02-10T00:29:00.272Z,37.3
2018-02-10T00:30:03.017Z,41.0
2018-02-10T00:31:05.206Z,39.2
2018-02-10T00:32:07.397Z,38.7
2018-02-10T00:33:15.785Z,37.5
2018-02-10T00:34:18.002Z,38.7
2018-02-10T00:35:23.162Z,40.7
2018-02-10T00:36:26.264Z,38.3
2018-02-10T00:37:28.592Z,40.2
2018-02-10T00:38:30.852Z,42.6
2018-02-10T00:39:34.053Z,40.3
2018-02-10T00:40:36.559Z,41.5
2018-02-10T00:41:40.311Z,41.2
2018-02-10T00:42:42.070Z,40.6
2018-02-10T00:43:45.096Z,43.0
2018-02-10T00:44:48.105Z,45.4
2018-02-10T00:45:50.467Z,42.1
2018-02-10T00:46:53.774Z,45.2
2018-02-10T00:47:56.645Z,41.7
2018-02-10T00:48:59.701Z,42.8
2018-02-10T00:50:01.987Z,43.7
2018-02-10T00:51:04.264Z,43.0
2018-02-10T00:52:07.101Z,42.6
2018-02-10T00:53:09.416Z,45.0
2018-02-10T00:54:11.726Z,43.3
2018-02-10T00:55:13.969Z,45.5
2018-02-10T00:56:19.097Z,48.7
2018-02-10T00:57:24.153Z,44.4
2018-02-10T00:58:26.469Z,46.9
2018-02-10T00:59:29.608Z,46.5
2018-02-10T01:00:33.193Z,49.3
2018-02-10T01:01:35.419Z,43.6
2018-02-10T01:02:37.753Z,48.3
2018-02-10T01:03:39.983Z,45.9
2018-02-10T01:04:42.205Z,45.8
2018-02-10T01:05:44.567Z,46.5
2018-02-10T01:06:47.290Z,44.0
2018-02-10T01:07:49.436Z,49.2
2018-02-10T01:08:52.739Z,47.3
2018-02-10T01:09:55.715Z,46.3
2018-02-10T01:10:57.900Z,43.1
2018-02-10T01:12:00.410Z,46.6
2018-02-10T01:13:02.719Z,47.3
2018-02-10T01:14:04.917Z,50.2
2018-02-10T01:15:07.517Z,47.2
2018-02-10T01:16:10.859Z,47.9
2018-02-10T01:17:13.967Z,48.4
2018-02-10T01:18:17.488Z,48.7
2018-02-10T01:19:20.602Z,48.0
2018-02-10T01:20:23.608Z,50.8
2018-02-10T01:21:25.876Z,49.5
2018-02-10T01:22:28.478Z,47.8
2018-02-10T01:23:30.671Z,49.5
2018-02-10T01:24:32.888Z,48.0
2018-02-10T01:25:35.707Z,47.4
2018-02-10T01:26:38.640Z,44.5
2018-02-10T01:27:41.182Z,47.5
2018-02-10T01:28:43.415Z,47.8
2018-02-10T01:29:45.672Z,47.3
2018-02-10T01:30:48.076Z,47.3
2018-02-10T01:31:50.288Z,47.2
2018-02-10T01:32:52.693Z,50.0
2018-02-10T01:33:54.951Z,45.3
2018-02-10T01:34:57.215Z,45.4
2018-02-10T01:35:59.448Z,46.3
2018-02-10T01:37:01.744Z,48.6
2018-02-10T01:38:04.094Z,47.6
2018-02-10T01:39:06.391Z,47.6
2018-02-10T01:40:09.254Z,47.6
2018-02-10T01:41:11.670Z,45.7
2018-02-10T01:42:13.980Z,43.6
2018-02-10T01:43:16.228Z,44.1
2018-02-10T01:44:18.648Z,47.5
2018-02-10T01:45:20.966Z,46.0
2018-02-10T01:46:23.250Z,44.7
2018-02-10T01:47:25.659Z,48.3
2018-02-10T01:48:28.409Z,47.3
2018-02-10T01:49:31.046Z,46.7
2018-02-10T01:50:33.516Z,45.1
2018-02-10T01:51:36.812Z,44.9
2018-02-10T01:52:39.602Z,48.5
2018-02-10T01:53:41.840Z,49.0
2018-02-10T01:54:44.163Z,46.4
2018-02-10T01:55:46.393Z,45.2
2018-02-10T01:56:49.085Z,47.4
2018-02-10T01:57:54.191Z,48.8
2018-02-10T01:58:57.152Z,48.8
2018-02-10T01:59:59.416Z,49.3
2018-02-10T02:01:02.671Z,45.4
2018-02-10T02:02:05.414Z,46.7
2018-02-10T02:03:07.698Z,43.4
2018-02-10T02:04:09.933Z,47.1
2018-02-10T02:05:12.185Z,48.4
2018-02-10T02:06:14.717Z,49.8
2018-02-10T02:07:16.958Z,47.3
2018-02-10T02:08:19.206Z,45.4
2018-02-10T02:09:21.393Z,42.6
2018-02-10T02:10:23.808Z,44.4
2018-02-10T02:11:25.999Z,46.6
2018-02-10T02:12:28.295Z,46.2
2018-02-10T02:13:30.575Z,47.4
2018-02-10T02:14:32.869Z,47.6
2018-02-10T02:15:35.027Z,46.3
2018-02-10T02:16:38.194Z,46.1
2018-02-10T02:17:40.428Z,47.3
2018-02-10T02:18:42.628Z,45.3
2018-02-10T02:19:45.605Z,47.6
2018-02-10T02:20:47.908Z,49.1
2018-02-10T02:21:50.295Z,45.2
2018-02-10T02:22:53.554Z,48.2
2018-02-10T02:23:55.927Z,51.0
2018-02-10T02:24:58.212Z,47.0
2018-02-10T02:26:00.700Z,46.6
2018-02-10T02:27:02.872Z,46.4
2018-02-10T02:28:05.174Z,48.1
2018-02-10T02:29:07.485Z,45.7
2018-02-10T02:30:10.015Z,44.8
2018-02-10T02:31:12.376Z,48.1
2018-02-10T02:32:15.249Z,48.2
2018-02-10T02:33:17.931Z,45.4
2018-02-10T02:34:21.158Z,46.4
2018-02-10T02:35:24.536Z,46.2
2018-02-10T02:36:29.760Z,46.7
2018-02-10T02:37:38.548Z,45.0
2018-02-10T02:38:40.857Z,44.8
2018-02-10T02:39:43.182Z,47.3
2018-02-10T02:40:48.151Z,50.4
2018-02-10T02:41:50.514Z,47.0
2018-02-10T02:42:53.927Z,47.3
2018-02-10T02:43:56.121Z,45.9
2018-02-10T02:44:59.063Z,45.8
2018-02-10T02:46:01.462Z,47.4
2018-02-10T02:47:03.741Z,47.9
2018-02-10T02:48:05.996Z,49.0
2018-02-10T02:49:08.445Z,47.7
2018-02-10T02:50:11.801Z,48.7
2018-02-10T02:51:14.721Z,46.1
2018-02-10T02:52:19.729Z,47.6
2018-02-10T02:53:22.093Z,46.5
2018-02-10T02:54:24.271Z,46.9
2018-02-10T02:55:26.633Z,44.6
2018-02-10T02:56:28.922Z,45.1
2018-02-10T02:57:31.184Z,45.1
2018-02-10T02:58:33.478Z,49.4
2018-02-10T02:59:35.817Z,48.9
2018-02-10T03:00:38.025Z,46.2
2018-02-10T03:01:40.593Z,49.2
2018-02-10T03:02:42.980Z,49.2
2018-02-10T03:03:45.348Z,46.8
2018-02-10T03:04:47.504Z,50.0
2018-02-10T03:05:49.768Z,49.5
2018-02-10T03:06:52.820Z,50.7
2018-02-10T03:07:55.192Z,48.7
2018-02-10T03:08:57.408Z,47.8
2018-02-10T03:10:00.630Z,48.9
2018-02-10T03:11:03.059Z,47.8
2018-02-10T03:12:05.300Z,49.6
2018-02-10T03:13:08.152Z,48.5
2018-02-10T03:14:10.492Z,48.2
2018-02-10T03:15:12.865Z,46.1
2018-02-10T03:16:15.091Z,46.2
2018-02-10T03:17:20.171Z,47.2
2018-02-10T03:18:22.439Z,50.5
2018-02-10T03:19:24.723Z,47.9
2018-02-10T03:20:27.143Z,47.0
2018-02-10T03:21:30.470Z,50.4
2018-02-10T03:22:32.864Z,49.3
2018-02-10T03:23:35.899Z,49.0
2018-02-10T03:24:38.756Z,47.9
2018-02-10T03:25:43.713Z,48.4
2018-02-10T03:26:46.609Z,48.9
2018-02-10T03:27:48.868Z,48.2
2018-02-10T03:28:51.704Z,49.9
2018-02-10T03:30:00.696Z,48.3
2018-02-10T03:31:03.136Z,49.4
2018-02-10T03:32:05.313Z,49.6
2018-02-10T03:33:07.581Z,47.5
2018-02-10T03:34:09.958Z,45.3
2018-02-10T03:35:12.239Z,47.0
2018-02-10T03:36:14.956Z,48.4
2018-02-10T03:37:17.213Z,49.1
2018-02-10T03:38:20.137Z,47.8
2018-02-10T03:39:22.630Z,48.7
2018-02-10T03:40:24.913Z,47.9
2018-02-10T03:41:27.283Z,46.5
2018-02-10T03:42:29.442Z,49.3
2018-02-10T03:43:31.734Z,49.4
2018-02-10T03:44:33.978Z,48.8
2018-02-10T03:45:36.228Z,50.0
2018-02-10T03:46:41.638Z,48.8
2018-02-10T03:47:44.709Z,50.6
2018-02-10T03:48:47.086Z,49.2
2018-02-10T03:49:50.366Z,50.3
2018-02-10T03:50:52.654Z,51.2
2018-02-10T03:51:55.118Z,52.1
2018-02-10T03:52:58.373Z,51.9
2018-02-10T03:54:00.650Z,52.0
2018-02-10T03:55:02.999Z,54.7
2018-02-10T03:56:05.370Z,51.5
2018-02-10T03:57:08.506Z,50.2
2018-02-10T03:58:11.054Z,52.6
2018-02-10T03:59:13.350Z,54.6
2018-02-10T04:00:15.675Z,53.0
2018-02-10T04:01:18.185Z,52.8
2018-02-10T04:02:20.388Z,55.4
2018-02-10T04:03:23.482Z,50.4
2018-02-10T04:04:26.763Z,53.2
2018-02-10T04:05:28.936Z,52.4
2018-02-10T04:06:31.111Z,54.2
2018-02-10T04:07:34.201Z,54.6
2018-02-10T04:08:36.683Z,52.2
2018-02-10T04:09:39.113Z,55.3
2018-02-10T04:10:41.652Z,53.9
2018-02-10T04:11:44.832Z,54.0
2018-02-10T04:12:47.492Z,53.7
2018-02-10T04:13:49.724Z,54.5
2018-02-10T04:14:51.974Z,51.4
2018-02-10T04:15:54.281Z,53.2
2018-02-10T04:16:56.657Z,55.7
2018-02-10T04:17:58.938Z,54.6
2018-02-10T04:19:01.153Z,54.9
2018-02-10T04:20:03.613Z,51.3
2018-02-10T04:21:06.966Z,51.6
2018-02-10T04:22:09.230Z,53.6
2018-02-10T04:23:11.436Z,51.7
2018-02-10T04:24:13.620Z,48.7
2018-02-10T04:25:17.154Z,54.5
2018-02-10T04:26:19.490Z,52.1
2018-02-10T04:27:21.779Z,50.6
2018-02-10T04:28:24.753Z,50.6
2018-02-10T04:29:27.067Z,51.5
2018-02-10T04:30:29.787Z,52.8
2018-02-10T04:31:32.238Z,49.8
2018-02-10T04:32:35.254Z,53.0
2018-02-10T04:33:38.098Z,53.1
2018-02-10T04:34:40.426Z,51.5
2018-02-10T04:35:42.649Z,53.3
2018-02-10T04:36:45.082Z,51.9
2018-02-10T04:37:47.562Z,51.3
2018-02-10T04:38:49.881Z,53.1
2018-02-10T04:39:52.170Z,53.5
2018-02-10T04:40:54.437Z,51.4
2018-02-10T04:41:56.776Z,55.0
2018-02-10T04:42:59.731Z,51.7
2018-02-10T04:44:02.717Z,52.7
2018-02-10T04:45:05.009Z,55.9
2018-02-10T04:46:08.240Z,50.2
2018-02-10T04:47:10.444Z,49.3
2018-02-10T04:48:13.145Z,52.5
2018-02-10T04:49:16.196Z,51.6
2018-02-10T04:50:19.167Z,52.8
2018-02-10T04:51:21.863Z,52.0
2018-02-10T04:52:24.765Z,54.0
2018-02-10T04:53:27.761Z,50.9
2018-02-10T04:54:30.020Z,49.4
2018-02-10T04:55:33.302Z,50.1
2018-02-10T04:56:35.672Z,47.3
2018-02-10T04:57:37.878Z,54.5
2018-02-10T04:58:40.147Z,54.7
2018-02-10T04:59:42.388Z,51.2
2018-02-10T05:00:44.661Z,52.4
2018-02-10T05:01:46.931Z,52.9
2018-02-10T05:02:49.530Z,49.0
2018-02-10T05:03:52.723Z,48.5
2018-02-10T05:04:55.404Z,51.4
2018-02-10T05:05:57.693Z,52.1
2018-02-10T05:07:00.005Z,52.1
2018-02-10T05:08:02.826Z,52.6
2018-02-10T05:09:05.477Z,53.7
2018-02-10T05:10:08.047Z,53.6
2018-02-10T05:11:11.254Z,56.8
2018-02-10T05:12:13.530Z,52.2
2018-02-10T05:13:15.831Z,55.0
2018-02-10T05:14:18.105Z,53.4
2018-02-10T05:15:21.194Z,55.9
2018-02-10T05:16:23.650Z,53.6
2018-02-10T05:17:26.015Z,51.9
2018-02-10T05:18:28.216Z,55.3
2018-02-10T05:19:30.409Z,57.0
2018-02-10T05:20:32.819Z,56.9
2018-02-10T05:21:35.077Z,55.3
2018-02-10T05:22:37.319Z,51.3
2018-02-10T05:23:39.956Z,53.4
2018-02-10T05:24:42.166Z,54.1
2018-02-10T05:25:44.451Z,52.6
2018-02-10T05:26:46.806Z,53.1
2018-02-10T05:27:49.102Z,54.0
2018-02-10T05:28:51.324Z,50.9
2018-02-10T05:29:53.692Z,52.7
2018-02-10T05:30:55.921Z,52.8
2018-02-10T05:31:58.601Z,52.6
2018-02-10T05:33:00.988Z,53.2
2018-02-10T05:34:03.108Z,53.1
2018-02-10T05:35:05.656Z,53.7
2018-02-10T05:36:08.715Z,51.4
2018-02-10T05:37:11.089Z,53.6
2018-02-10T05:38:13.343Z,51.8
2018-02-10T05:39:15.487Z,53.4
2018-02-10T05:40:17.874Z,49.8
2018-02-10T05:41:20.178Z,52.9
2018-02-10T05:42:22.351Z,54.1
2018-02-10T05:43:24.781Z,49.2
2018-02-10T05:44:26.963Z,52.1
2018-02-10T05:45:29.277Z,50.3
2018-02-10T05:46:31.488Z,50.8
2018-02-10T05:47:33.977Z,51.1
2018-02-10T05:48:36.119Z,50.6
2018-02-10T05:49:38.343Z,52.0
2018-02-10T05:50:40.685Z,50.8
2018-02-10T05:51:42.961Z,48.5
2018-02-10T05:52:45.266Z,48.5
2018-02-10T05:53:47.492Z,47.0
2018-02-10T05:54:49.791Z,43.9
2018-02-10T05:55:52.100Z,49.6
2018-02-10T05:56:54.404Z,49.6
2018-02-10T05:57:56.602Z,50.7
2018-02-10T05:59:11.720Z,48.9
2018-02-10T06:00:13.876Z,46.6
2018-02-10T06:01:16.205Z,45.8
2018-02-10T06:02:18.370Z,47.2
2018-02-10T06:03:20.643Z,46.6
2018-02-10T06:04:22.863Z,47.5
2018-02-10T06:05:25.468Z,45.4
2018-02-10T06:06:27.675Z,46.4
2018-02-10T06:07:29.967Z,50.0
2018-02-10T06:08:32.202Z,47.0
2018-02-10T06:09:35.158Z,46.1
2018-02-10T06:10:37.419Z,48.5
2018-02-10T06:11:39.628Z,45.0
2018-02-10T06:12:41.858Z,44.6
2018-02-10T06:13:44.063Z,46.0
2018-02-10T06:14:46.403Z,44.7
2018-02-10T06:15:48.780Z,45.0
2018-02-10T06:16:51.200Z,45.0
2018-02-10T06:17:53.476Z,46.1
2018-02-10T06:18:55.729Z,47.4
2018-02-10T06:19:58.275Z,45.4
2018-02-10T06:21:00.585Z,44.3
2018-02-10T06:22:03.143Z,41.3
2018-02-10T06:23:06.265Z,44.3
2018-02-10T06:24:08.540Z,45.0
2018-02-10T06:25:11.627Z,46.5
2018-02-10T06:26:13.834Z,47.3
2018-02-10T06:27:16.131Z,46.5
2018-02-10T06:28:18.368Z,48.8
2018-02-10T06:29:20.676Z,47.9
2018-02-10T06:30:23.301Z,48.9
2018-02-10T06:31:25.520Z,49.0
2018-02-10T06:32:27.688Z,50.3
2018-02-10T06:33:29.978Z,47.2
2018-02-10T06:34:32.253Z,48.6
2018-02-10T06:35:34.545Z,49.6
2018-02-10T06:36:36.665Z,50.0
2018-02-10T06:37:38.850Z,48.7
2018-02-10T06:38:41.089Z,49.8
2018-02-10T06:39:43.364Z,49.6
2018-02-10T06:40:45.954Z,48.7
2018-02-10T06:41:48.290Z,49.3
2018-02-10T06:42:50.521Z,50.4
2018-02-10T06:43:52.799Z,51.3
2018-02-10T06:44:55.034Z,50.5
2018-02-10T06:45:57.280Z,50.7
2018-02-10T06:46:59.543Z,51.1
2018-02-10T06:48:01.711Z,48.9
2018-02-10T06:49:03.838Z,50.3
2018-02-10T06:50:06.029Z,50.4
2018-02-10T06:51:08.463Z,49.4
2018-02-10T06:52:10.786Z,47.9
2018-02-10T06:53:13.046Z,48.8
2018-02-10T06:54:15.214Z,46.2
2018-02-10T06:55:17.953Z,47.4
2018-02-10T06:56:20.180Z,49.6
2018-02-10T06:57:22.541Z,52.1
2018-02-10T06:58:24.793Z,52.4
2018-02-10T06:59:27.026Z,51.7
2018-02-10T07:00:29.254Z,48.6
2018-02-10T07:01:31.518Z,49.6
2018-02-10T07:02:33.963Z,49.9
2018-02-10T07:03:36.130Z,50.5
2018-02-10T07:04:38.563Z,49.4
2018-02-10T07:05:41.047Z,51.6
2018-02-10T07:06:43.545Z,50.3
2018-02-10T07:07:46.012Z,52.0
2018-02-10T07:08:48.614Z,52.3
2018-02-10T07:09:50.787Z,52.2
2018-02-10T07:10:53.306Z,51.7
2018-02-10T07:11:55.916Z,52.9
2018-02-10T07:12:58.125Z,52.4
2018-02-10T07:14:00.329Z,53.3
2018-02-10T07:15:02.909Z,51.6
2018-02-10T07:16:05.080Z,51.4
2018-02-10T07:17:08.279Z,51.8
2018-02-10T07:18:10.895Z,50.7
2018-02-10T07:19:13.199Z,51.4
2018-02-10T07:20:15.577Z,51.2
2018-02-10T07:21:17.867Z,54.0
2018-02-10T07:22:20.374Z,52.2
2018-02-10T07:23:22.886Z,49.7
2018-02-10T07:24:25.309Z,49.1
2018-02-10T07:25:27.797Z,51.7
2018-02-10T07:26:30.148Z,51.7
2018-02-10T07:27:32.519Z,54.0
2018-02-10T07:28:35.031Z,51.0
2018-02-10T07:29:37.174Z,47.9
2018-02-10T07:30:39.847Z,50.7
2018-02-10T07:31:42.149Z,48.5
2018-02-10T07:32:44.260Z,51.6
2018-02-10T07:33:46.588Z,48.3
2018-02-10T07:34:48.807Z,50.0
2018-02-10T07:35:51.042Z,48.1
2018-02-10T07:36:53.287Z,48.0
2018-02-10T07:37:55.481Z,47.4
2018-02-10T07:38:57.740Z,48.7
2018-02-10T07:40:00.039Z,45.8
2018-02-10T07:41:02.319Z,48.7
2018-02-10T07:42:04.509Z,49.6
2018-02-10T07:43:06.678Z,47.2
2018-02-10T07:44:08.934Z,49.5
2018-02-10T07:45:11.171Z,49.7
2018-02-10T07:46:13.378Z,47.3
2018-02-10T07:47:15.695Z,47.5
2018-02-10T07:48:17.890Z,44.4
2018-02-10T07:49:20.093Z,48.6
2018-02-10T07:50:22.372Z,48.3
2018-02-10T07:51:24.774Z,47.0
2018-02-10T07:52:27.035Z,47.7
2018-02-10T07:53:29.260Z,48.6
2018-02-10T07:54:31.523Z,48.8
2018-02-10T07:55:33.871Z,48.9
2018-02-10T07:56:36.136Z,47.2
2018-02-10T07:57:39.237Z,50.2
2018-02-10T07:58:41.387Z,46.9
2018-02-10T07:59:43.727Z,49.2
2018-02-10T08:00:45.963Z,47.5
2018-02-10T08:01:48.123Z,51.5
2018-02-10T08:02:50.424Z,48.5
2018-02-10T08:03:52.688Z,46.8
2018-02-10T08:04:54.895Z,45.3
2018-02-10T08:05:57.071Z,48.7
2018-02-10T08:06:59.390Z,48.8
2018-02-10T08:08:01.639Z,49.2
2018-02-10T08:09:03.873Z,48.4
2018-02-10T08:10:06.171Z,48.6
2018-02-10T08:11:08.449Z,51.4
2018-02-10T08:12:10.727Z,48.1
2018-02-10T08:13:12.971Z,49.2
2018-02-10T08:14:15.388Z,46.8
2018-02-10T08:15:17.720Z,49.6
2018-02-10T08:16:20.369Z,49.0
2018-02-10T08:17:23.753Z,50.1
2018-02-10T08:18:26.172Z,49.7
2018-02-10T08:19:28.429Z,44.7
2018-02-10T08:20:30.905Z,46.4
2018-02-10T08:21:33.368Z,45.0
2018-02-10T08:22:35.724Z,45.5
2018-02-10T08:23:38.516Z,49.6
2018-02-10T08:24:42.253Z,46.1
2018-02-10T08:25:44.617Z,46.4
2018-02-10T08:26:47.260Z,49.9
2018-02-10T08:27:49.919Z,50.0
2018-02-10T08:28:52.149Z,46.9
2018-02-10T08:29:54.616Z,47.6
2018-02-10T08:30:56.808Z,47.2
2018-02-10T08:31:58.995Z,46.0
2018-02-10T08:33:01.313Z,44.3
2018-02-10T08:34:03.636Z,45.8
2018-02-10T08:35:06.044Z,45.7
2018-02-10T08:36:08.795Z,45.6
2018-02-10T08:37:11.167Z,43.0
2018-02-10T08:38:13.406Z,47.3
2018-02-10T08:39:15.595Z,47.9
2018-02-10T08:40:18.196Z,44.5
2018-02-10T08:41:20.442Z,46.4
2018-02-10T08:42:22.656Z,47.0
2018-02-10T08:43:27.312Z,45.3
2018-02-10T08:44:29.689Z,45.8
2018-02-10T08:45:31.851Z,44.3
2018-02-10T08:46:35.244Z,48.1
2018-02-10T08:47:37.885Z,43.6
2018-02-10T08:48:40.170Z,44.8
2018-02-10T08:49:42.957Z,45.5
2018-02-10T08:50:46.175Z,45.1
2018-02-10T08:51:48.930Z,42.9
2018-02-10T08:52:51.132Z,48.2
2018-02-10T08:53:53.414Z,43.7
2018-02-10T08:54:56.579Z,47.4
2018-02-10T08:55:59.068Z,45.6
2018-02-10T08:57:02.769Z,47.5
2018-02-10T08:58:05.137Z,47.3
2018-02-10T08:59:07.514Z,49.0
2018-02-10T09:00:09.809Z,45.1
2018-02-10T09:01:12.066Z,49.1
2018-02-10T09:02:14.361Z,47.7
2018-02-10T09:03:17.172Z,44.6
2018-02-10T09:04:19.834Z,44.4
2018-02-10T09:05:22.147Z,47.1
2018-02-10T09:06:25.358Z,48.2
2018-02-10T09:07:27.993Z,47.6
2018-02-10T09:08:33.167Z,46.1
2018-02-10T09:09:38.045Z,43.6
2018-02-10T09:10:40.338Z,46.6
2018-02-10T09:11:45.182Z,44.9
2018-02-10T09:12:49.963Z,46.4
2018-02-10T09:15:06.796Z,45.7
2018-02-10T09:16:09.015Z,48.1
2018-02-10T09:17:11.601Z,45.6
2018-02-10T09:18:14.028Z,45.0
2018-02-10T09:20:28.079Z,46.0
2018-02-10T09:21:30.566Z,46.4
2018-02-10T09:22:33.068Z,45.9
2018-02-10T09:23:35.354Z,45.8
2018-02-10T09:24:39.704Z,43.9
2018-02-10T09:25:42.081Z,47.3
2018-02-10T09:26:44.470Z,45.6
2018-02-10T09:27:47.938Z,42.2
2018-02-10T09:28:51.893Z,45.7
2018-02-10T09:29:54.146Z,45.6
2018-02-10T09:30:56.713Z,44.2
2018-02-10T09:31:59.097Z,43.0
2018-02-10T09:33:01.372Z,43.7
2018-02-10T09:34:03.700Z,43.3
2018-02-10T09:35:06.040Z,44.1
2018-02-10T09:36:08.346Z,42.0
2018-02-10T09:37:10.989Z,43.2
2018-02-10T09:38:13.194Z,44.3
2018-02-10T09:39:15.497Z,44.0
2018-02-10T09:40:17.907Z,42.9
2018-02-10T09:41:20.252Z,42.8
2018-02-10T09:42:22.450Z,43.0
2018-02-10T09:43:24.663Z,40.9
2018-02-10T09:44:27.011Z,42.7
2018-02-10T09:45:29.237Z,41.9
2018-02-10T09:46:31.514Z,39.9
2018-02-10T09:47:33.713Z,40.3
2018-02-10T09:48:35.876Z,42.2
2018-02-10T09:49:38.083Z,41.6
2018-02-10T09:50:40.622Z,43.3
2018-02-10T09:51:42.975Z,41.3
2018-02-10T09:52:45.342Z,42.0
2018-02-10T09:53:47.529Z,41.5
2018-02-10T09:54:49.747Z,41.1
2018-02-10T09:55:52.498Z,42.2
2018-02-10T09:56:54.594Z,44.1
2018-02-10T09:57:57.334Z,42.1
2018-02-10T09:58:59.944Z,39.7
2018-02-10T10:00:02.724Z,42.3
2018-02-10T10:01:05.116Z,40.8
2018-02-10T10:02:07.358Z,46.6
2018-02-10T10:03:09.883Z,43.6
2018-02-10T10:04:12.146Z,42.5
2018-02-10T10:05:14.748Z,41.7
2018-02-10T10:06:17.449Z,40.9
2018-02-10T10:07:19.790Z,42.4
2018-02-10T10:08:22.069Z,41.5
2018-02-10T10:09:24.570Z,40.9
2018-02-10T10:10:26.860Z,39.7
2018-02-10T10:11:29.550Z,43.1
2018-02-10T10:12:31.749Z,41.1
2018-02-10T10:13:34.081Z,42.0
2018-02-10T10:14:36.359Z,40.7
2018-02-10T10:15:38.612Z,42.2
2018-02-10T10:16:40.929Z,42.3
2018-02-10T10:17:43.281Z,40.4
2018-02-10T10:18:45.518Z,40.1
2018-02-10T10:19:47.732Z,40.7
2018-02-10T10:20:49.984Z,41.2
2018-02-10T10:21:52.226Z,42.3
2018-02-10T10:22:54.477Z,44.9
2018-02-10T10:23:56.698Z,42.0
2018-02-10T10:24:58.905Z,39.3
2018-02-10T10:26:01.087Z,39.3
2018-02-10T10:27:03.388Z,41.9
2018-02-10T10:28:05.727Z,39.6
2018-02-10T10:29:10.082Z,41.5
2018-02-10T10:30:13.317Z,38.5
2018-02-10T10:31:15.501Z,40.2
2018-02-10T10:32:22.378Z,40.1
2018-02-10T10:33:24.564Z,37.2
2018-02-10T10:34:27.024Z,38.1
2018-02-10T10:35:29.196Z,39.5
2018-02-10T10:36:31.315Z,40.5
2018-02-10T10:37:33.528Z,37.1
2018-02-10T10:38:35.577Z,37.3
2018-02-10T10:39:37.812Z,37.2
2018-02-10T10:40:40.064Z,37.1
2018-02-10T10:41:42.603Z,36.9
2018-02-10T10:42:44.823Z,38.9
2018-02-10T10:43:46.917Z,37.8
2018-02-10T10:44:48.991Z,37.7
2018-02-10T10:45:51.257Z,37.3
2018-02-10T10:46:53.647Z,37.7
2018-02-10T10:47:56.304Z,35.5
2018-02-10T10:48:58.484Z,36.9
2018-02-10T10:50:00.874Z,35.8
2018-02-10T10:51:03.080Z,37.3
2018-02-10T10:52:05.237Z,37.2
2018-02-10T10:53:07.350Z,37.3
2018-02-10T10:54:09.746Z,37.6
2018-02-10T10:55:12.243Z,37.3
2018-02-10T10:56:14.738Z,36.8
2018-02-10T10:57:16.846Z,35.9
2018-02-10T10:58:19.106Z,40.6
2018-02-10T10:59:21.297Z,37.3
2018-02-10T11:00:23.457Z,37.0
2018-02-10T11:01:25.655Z,37.6
2018-02-10T11:02:27.914Z,34.0
2018-02-10T11:03:30.144Z,39.1
2018-02-10T11:04:32.318Z,40.5
2018-02-10T11:05:34.786Z,37.1
2018-02-10T11:06:37.027Z,39.7
2018-02-10T11:07:39.246Z,38.2
2018-02-10T11:08:41.380Z,40.8
2018-02-10T11:09:43.637Z,37.2
2018-02-10T11:10:45.914Z,38.1
2018-02-10T11:11:48.470Z,39.1
2018-02-10T11:12:50.569Z,37.9
2018-02-10T11:13:52.854Z,39.6
2018-02-10T11:14:55.086Z,36.8
2018-02-10T11:15:57.382Z,38.6
2018-02-10T11:17:00.068Z,40.1
2018-02-10T11:18:03.547Z,40.7
2018-02-10T11:19:06.356Z,38.9
2018-02-10T11:20:09.432Z,36.2
2018-02-10T11:21:11.986Z,38.4
2018-02-10T11:22:14.733Z,38.6
2018-02-10T11:23:17.564Z,36.3
2018-02-10T11:24:19.972Z,35.7
2018-02-10T11:25:22.499Z,40.6
2018-02-10T11:26:25.710Z,40.4
2018-02-10T11:27:28.141Z,36.8
2018-02-10T11:28:30.709Z,38.7
2018-02-10T11:29:33.510Z,36.3
2018-02-10T11:30:37.985Z,37.8
2018-02-10T11:31:41.077Z,38.0
2018-02-10T11:32:44.953Z,38.8
2018-02-10T11:33:47.312Z,39.3
2018-02-10T11:34:50.689Z,34.9
2018-02-10T11:35:55.606Z,36.1
2018-02-10T11:36:59.123Z,37.3
2018-02-10T11:38:02.875Z,36.0
2018-02-10T11:39:05.234Z,36.8
2018-02-10T11:40:07.464Z,36.4
2018-02-10T11:41:20.541Z,34.0
2018-02-10T11:42:28.445Z,37.4
2018-02-10T11:43:32.418Z,37.2
2018-02-10T11:44:35.501Z,39.0
2018-02-10T11:45:38.416Z,40.9
2018-02-10T11:46:41.598Z,37.9
2018-02-10T11:47:44.660Z,35.7
2018-02-10T11:48:46.951Z,36.5
2018-02-10T11:49:49.814Z,35.7
2018-02-10T11:50:53.031Z,36.6
2018-02-10T11:51:56.678Z,37.9
2018-02-10T11:52:59.099Z,34.7
2018-02-10T11:54:03.098Z,34.1
2018-02-10T11:55:06.056Z,41.0
2018-02-10T11:56:08.537Z,37.9
2018-02-10T11:57:11.829Z,38.6
2018-02-10T11:58:15.021Z,41.5
2018-02-10T11:59:17.749Z,45.1
2018-02-10T12:00:20.572Z,36.8
2018-02-10T12:01:23.646Z,40.1
2018-02-10T12:02:26.052Z,42.9
2018-02-10T12:03:29.714Z,41.5
2018-02-10T12:04:32.370Z,38.5
2018-02-10T12:05:34.643Z,36.8
2018-02-10T12:06:37.109Z,39.8
2018-02-10T12:07:40.112Z,38.4
2018-02-10T12:08:42.564Z,41.5
2018-02-10T12:09:45.013Z,36.0
2018-02-10T12:10:47.291Z,35.3
2018-02-10T12:11:49.708Z,38.2
2018-02-10T12:12:52.539Z,37.6
2018-02-10T12:13:55.087Z,40.2
2018-02-10T12:14:57.500Z,38.1
2018-02-10T12:16:00.837Z,38.5
2018-02-10T12:17:04.031Z,40.9
2018-02-10T12:18:07.042Z,44.1
2018-02-10T12:19:09.906Z,44.7
2018-02-10T12:20:12.914Z,58.2
2018-02-10T12:21:15.457Z,55.0
2018-02-10T12:22:17.876Z,47.6
2018-02-10T12:23:20.434Z,42.0
2018-02-10T12:24:23.061Z,41.7
2018-02-10T12:25:25.786Z,39.8
2018-02-10T12:26:28.273Z,42.8
2018-02-10T12:27:30.414Z,37.0
2018-02-10T12:28:33.727Z,37.8
2018-02-10T12:29:36.203Z,37.2
2018-02-10T12:30:38.691Z,45.7
2018-02-10T12:31:41.030Z,43.7
2018-02-10T12:32:43.207Z,46.4
2018-02-10T12:33:45.809Z,46.7
2018-02-10T12:34:48.163Z,46.5
2018-02-10T12:35:50.445Z,42.2
2018-02-10T12:36:52.707Z,44.5
2018-02-10T12:37:55.132Z,47.1
2018-02-10T12:38:57.511Z,45.1
2018-02-10T12:39:59.873Z,45.9
2018-02-10T12:41:02.632Z,40.8
2018-02-10T12:42:05.187Z,42.4
2018-02-10T12:43:07.264Z,42.7
2018-02-10T12:44:09.437Z,42.9
2018-02-10T12:45:11.640Z,40.1
2018-02-10T12:46:13.854Z,36.8
2018-02-10T12:47:16.075Z,41.4
2018-02-10T12:48:18.229Z,38.8
2018-02-10T12:49:21.278Z,35.8
2018-02-10T12:50:23.389Z,39.9
2018-02-10T12:51:25.820Z,39.4
2018-02-10T12:52:28.345Z,39.4
2018-02-10T12:53:30.780Z,41.1
2018-02-10T12:54:34.315Z,40.9
2018-02-10T12:55:36.663Z,48.6
2018-02-10T12:56:39.328Z,47.3
2018-02-10T12:57:41.607Z,42.3
2018-02-10T12:58:44.202Z,46.5
2018-02-10T12:59:46.819Z,49.5
2018-02-10T13:00:49.455Z,48.6
2018-02-10T13:01:52.138Z,48.7
2018-02-10T13:02:55.836Z,45.2
2018-02-10T13:03:58.493Z,45.6
2018-02-10T13:05:01.130Z,47.3
2018-02-10T13:06:03.715Z,51.6
2018-02-10T13:07:06.340Z,49.7
2018-02-10T13:08:08.692Z,48.6
2018-02-10T13:09:11.113Z,47.3
2018-02-10T13:10:13.427Z,44.8
2018-02-10T13:11:15.867Z,43.9
2018-02-10T13:12:18.464Z,48.1
2018-02-10T13:13:20.956Z,44.4
2018-02-10T13:14:23.846Z,42.9
2018-02-10T13:15:26.396Z,49.5
2018-02-10T13:16:28.575Z,45.9
2018-02-10T13:17:31.582Z,46.3
2018-02-10T13:18:33.824Z,45.7
2018-02-10T13:19:36.404Z,51.2
2018-02-10T13:20:38.639Z,48.1
2018-02-10T13:21:41.265Z,49.6
2018-02-10T13:22:43.626Z,48.5
2018-02-10T13:23:46.146Z,52.0
2018-02-10T13:24:48.717Z,50.8
2018-02-10T13:25:51.463Z,57.9
2018-02-10T13:26:53.515Z,52.8
2018-02-10T13:27:56.141Z,51.9
2018-02-10T13:28:58.824Z,54.8
2018-02-10T13:30:01.436Z,54.5
2018-02-10T13:31:04.482Z,59.9
2018-02-10T13:32:07.058Z,63.0
2018-02-10T13:33:09.503Z,62.6
2018-02-10T13:34:12.210Z,58.5
2018-02-10T13:35:14.414Z,58.2
2018-02-10T13:36:16.971Z,58.8
2018-02-10T13:37:19.537Z,59.4
2018-02-10T13:38:22.238Z,57.6
2018-02-10T13:39:24.858Z,56.2
2018-02-10T13:40:27.107Z,58.8
2018-02-10T13:41:29.768Z,54.2
2018-02-10T13:42:32.486Z,59.6
2018-02-10T13:43:35.179Z,63.1
2018-02-10T13:44:40.879Z,55.7
2018-02-10T13:45:43.420Z,57.1
2018-02-10T13:46:45.871Z,57.7
2018-02-10T13:47:48.117Z,50.9
2018-02-10T13:48:50.343Z,50.8
2018-02-10T13:49:52.578Z,55.6
2018-02-10T13:50:55.242Z,52.0
2018-02-10T13:51:57.414Z,53.5
2018-02-10T13:53:01.125Z,59.2
2018-02-10T13:54:03.538Z,58.7
2018-02-10T13:55:05.850Z,57.5
2018-02-10T13:56:08.225Z,62.3